sensor_id;sensor_type;location;lat;lon;timestamp;pressure;altitude;pressure_sealevel;temperature;humidity
20889;BME280;10604;51.976;7.594;2023-02-22T00:00:21;100866.75;;;9.17;100.00
20889;BME280;10604;51.976;7.594;2023-02-22T00:02:54;100859.81;;;9.13;100.00
20889;BME280;10604;51.976;7.594;2023-02-22T00:05:25;100859.81;;;9.13;100.00
20889;BME280;10604;51.976;7.594;2023-02-22T00:07:50;100858.09;;;9.12;100.00
20889;BME280;10604;51.976;7.594;2023-02-22T00:10:17;100848.41;;;9.14;100.00
20889;BME280;10604;51.976;7.594;2023-02-22T00:12:46;100845.03;;;9.09;100.00
20889;BME280;10604;51.976;7.594;2023-02-22T00:15:16;100844.19;;;9.07;100.00
20889;BME280;10604;51.976;7.594;2023-02-22T00:17:43;100851.22;;;9.04;100.00
20889;BME280;10604;51.976;7.594;2023-02-22T00:20:09;100838.97;;;9.03;100.00
20889;BME280;10604;51.976;7.594;2023-02-22T00:22:42;100832.84;;;9.03;100.00
20889;BME280;10604;51.976;7.594;2023-02-22T00:25:08;100838.09;;;9.03;100.00
20889;BME280;10604;51.976;7.594;2023-02-22T00:27:34;100836.72;;;8.87;100.00
20889;BME280;10604;51.976;7.594;2023-02-22T00:30:00;100841.13;;;8.86;100.00
20889;BME280;10604;51.976;7.594;2023-02-22T00:32:25;100839.25;;;8.91;100.00
20889;BME280;10604;51.976;7.594;2023-02-22T00:34:52;100838.38;;;8.91;100.00
20889;BME280;10604;51.976;7.594;2023-02-22T00:37:18;100832.44;;;8.81;100.00
20889;BME280;10604;51.976;7.594;2023-02-22T00:39:46;100826.44;;;8.76;100.00
20889;BME280;10604;51.976;7.594;2023-02-22T00:42:12;100833.06;;;8.94;100.00
20889;BME280;10604;51.976;7.594;2023-02-22T00:44:38;100835.88;;;8.86;100.00
20889;BME280;10604;51.976;7.594;2023-02-22T00:47:03;100832.34;;;8.87;100.00
20889;BME280;10604;51.976;7.594;2023-02-22T00:49:29;100829.88;;;8.80;100.00
20889;BME280;10604;51.976;7.594;2023-02-22T00:51:54;100818.53;;;8.76;100.00
20889;BME280;10604;51.976;7.594;2023-02-22T00:54:20;100817.03;;;8.66;100.00
20889;BME280;10604;51.976;7.594;2023-02-22T00:56:45;100818.34;;;8.85;100.00
20889;BME280;10604;51.976;7.594;2023-02-22T00:59:11;100806.22;;;8.78;100.00
20889;BME280;10604;51.976;7.594;2023-02-22T01:01:36;100806.69;;;8.57;100.00
20889;BME280;10604;51.976;7.594;2023-02-22T01:04:02;100808.44;;;8.58;100.00
20889;BME280;10604;51.976;7.594;2023-02-22T01:06:27;100808.78;;;8.40;100.00
20889;BME280;10604;51.976;7.594;2023-02-22T01:08:53;100808.06;;;8.32;100.00
20889;BME280;10604;51.976;7.594;2023-02-22T01:11:19;100795.09;;;8.22;100.00
20889;BME280;10604;51.976;7.594;2023-02-22T01:13:46;100803.91;;;8.18;100.00
20889;BME280;10604;51.976;7.594;2023-02-22T01:16:12;100797.56;;;8.32;100.00
20889;BME280;10604;51.976;7.594;2023-02-22T01:18:37;100798.63;;;8.21;100.00
20889;BME280;10604;51.976;7.594;2023-02-22T01:21:03;100794.91;;;8.32;100.00
20889;BME280;10604;51.976;7.594;2023-02-22T01:23:29;100798.53;;;8.24;100.00
20889;BME280;10604;51.976;7.594;2023-02-22T01:25:55;100795.00;;;8.25;100.00
20889;BME280;10604;51.976;7.594;2023-02-22T01:28:21;100789.56;;;8.38;100.00
20889;BME280;10604;51.976;7.594;2023-02-22T01:30:46;100786.16;;;8.33;100.00
20889;BME280;10604;51.976;7.594;2023-02-22T01:33:13;100786.16;;;8.33;100.00
20889;BME280;10604;51.976;7.594;2023-02-22T01:35:41;100790.34;;;8.43;100.00
20889;BME280;10604;51.976;7.594;2023-02-22T01:38:08;100784.63;;;8.64;100.00
20889;BME280;10604;51.976;7.594;2023-02-22T01:40:38;100782.28;;;8.52;100.00
20889;BME280;10604;51.976;7.594;2023-02-22T01:43:17;100780.41;;;8.57;100.00
20889;BME280;10604;51.976;7.594;2023-02-22T01:48:36;100768.41;;;8.84;100.00
20889;BME280;10604;51.976;7.594;2023-02-22T01:56:11;100762.09;;;8.92;100.00
20889;BME280;10604;51.976;7.594;2023-02-22T01:58:39;100763.97;;;8.87;100.00
20889;BME280;10604;51.976;7.594;2023-02-22T02:01:06;100764.16;;;8.78;100.00
20889;BME280;10604;51.976;7.594;2023-02-22T02:03:35;100764.31;;;8.72;100.00
20889;BME280;10604;51.976;7.594;2023-02-22T02:06:04;100759.44;;;8.92;100.00
20889;BME280;10604;51.976;7.594;2023-02-22T02:11:35;100767.53;;;8.83;100.00
20889;BME280;10604;51.976;7.594;2023-02-22T02:14:06;100756.09;;;8.86;100.00
20889;BME280;10604;51.976;7.594;2023-02-22T02:16:37;100755.22;;;8.85;100.00
20889;BME280;10604;51.976;7.594;2023-02-22T02:19:08;100752.56;;;8.87;100.00
20889;BME280;10604;51.976;7.594;2023-02-22T02:33:00;100747.94;;;8.59;100.00
20889;BME280;10604;51.976;7.594;2023-02-22T02:43:56;100739.06;;;8.63;100.00
20889;BME280;10604;51.976;7.594;2023-02-22T02:46:28;100727.75;;;8.60;100.00
20889;BME280;10604;51.976;7.594;2023-02-22T02:49:06;100731.28;;;8.59;100.00
20889;BME280;10604;51.976;7.594;2023-02-22T02:51:39;100730.16;;;8.69;100.00
20889;BME280;10604;51.976;7.594;2023-02-22T02:54:07;100720.69;;;8.62;100.00
20889;BME280;10604;51.976;7.594;2023-02-22T02:56:33;100722.72;;;8.51;100.00
20889;BME280;10604;51.976;7.594;2023-02-22T02:58:59;100718.81;;;8.67;100.00
20889;BME280;10604;51.976;7.594;2023-02-22T03:12:29;100708.25;;;8.29;100.00
20889;BME280;10604;51.976;7.594;2023-02-22T03:15:34;100700.41;;;8.27;100.00
20889;BME280;10604;51.976;7.594;2023-02-22T03:18:05;100696.13;;;8.23;100.00
20889;BME280;10604;51.976;7.594;2023-02-22T03:26:07;100694.19;;;8.33;100.00
20889;BME280;10604;51.976;7.594;2023-02-22T03:28:35;100684.50;;;8.35;100.00
20889;BME280;10604;51.976;7.594;2023-02-22T03:31:14;100676.75;;;8.27;100.00
20889;BME280;10604;51.976;7.594;2023-02-22T03:33:44;100674.25;;;8.22;100.00
20889;BME280;10604;51.976;7.594;2023-02-22T03:36:23;100674.38;;;8.16;100.00
20889;BME280;10604;51.976;7.594;2023-02-22T03:38:51;100679.63;;;8.16;100.00
20889;BME280;10604;51.976;7.594;2023-02-22T03:41:22;100674.16;;;8.25;100.00
20889;BME280;10604;51.976;7.594;2023-02-22T03:43:57;100676.91;;;8.19;100.00
20889;BME280;10604;51.976;7.594;2023-02-22T03:46:26;100675.19;;;8.18;100.00
20889;BME280;10604;51.976;7.594;2023-02-22T03:51:31;100670.63;;;8.28;100.00
20889;BME280;10604;51.976;7.594;2023-02-22T03:53:56;100674.25;;;8.22;100.00
20889;BME280;10604;51.976;7.594;2023-02-22T03:56:27;100681.34;;;8.17;100.00
20889;BME280;10604;51.976;7.594;2023-02-22T03:59:04;100676.16;;;8.14;100.00
20889;BME280;10604;51.976;7.594;2023-02-22T04:01:30;100677.91;;;8.15;100.00
20889;BME280;10604;51.976;7.594;2023-02-22T04:03:55;100659.50;;;8.17;100.00
20889;BME280;10604;51.976;7.594;2023-02-22T04:06:21;100663.16;;;8.10;100.00
20889;BME280;10604;51.976;7.594;2023-02-22T04:08:46;100659.69;;;8.06;100.00
20889;BME280;10604;51.976;7.594;2023-02-22T04:11:11;100655.28;;;8.08;100.00
20889;BME280;10604;51.976;7.594;2023-02-22T04:13:37;100659.88;;;7.97;100.00
20889;BME280;10604;51.976;7.594;2023-02-22T04:16:03;100655.34;;;8.05;100.00
20889;BME280;10604;51.976;7.594;2023-02-22T04:18:29;100651.19;;;7.95;100.00
20889;BME280;10604;51.976;7.594;2023-02-22T04:20:54;100653.81;;;7.95;100.00
20889;BME280;10604;51.976;7.594;2023-02-22T04:23:19;100655.47;;;7.99;100.00
20889;BME280;10604;51.976;7.594;2023-02-22T04:25:45;100661.59;;;8.00;100.00
20889;BME280;10604;51.976;7.594;2023-02-22T04:28:10;100650.81;;;8.12;100.00
20889;BME280;10604;51.976;7.594;2023-02-22T04:30:36;100653.41;;;8.13;100.00
20889;BME280;10604;51.976;7.594;2023-02-22T04:33:01;100647.59;;;7.99;100.00
20889;BME280;10604;51.976;7.594;2023-02-22T04:35:26;100645.84;;;8.00;100.00
20889;BME280;10604;51.976;7.594;2023-02-22T04:37:52;100647.78;;;7.90;100.00
20889;BME280;10604;51.976;7.594;2023-02-22T04:40:17;100652.25;;;7.85;100.00
20889;BME280;10604;51.976;7.594;2023-02-22T04:42:43;100649.69;;;7.82;100.00
20889;BME280;10604;51.976;7.594;2023-02-22T04:45:08;100648.50;;;7.98;100.00
20889;BME280;10604;51.976;7.594;2023-02-22T04:47:37;100650.28;;;7.96;100.00
20889;BME280;10604;51.976;7.594;2023-02-22T04:50:04;100650.53;;;7.84;100.00
20889;BME280;10604;51.976;7.594;2023-02-22T04:52:30;100653.81;;;7.95;100.00
20889;BME280;10604;51.976;7.594;2023-02-22T04:54:55;100646.53;;;8.09;100.00
20889;BME280;10604;51.976;7.594;2023-02-22T04:57:21;100645.09;;;7.93;100.00
20889;BME280;10604;51.976;7.594;2023-02-22T04:59:46;100647.66;;;7.96;100.00
20889;BME280;10604;51.976;7.594;2023-02-22T05:02:11;100643.41;;;7.89;100.00
20889;BME280;10604;51.976;7.594;2023-02-22T05:04:37;100641.81;;;7.82;100.00
20889;BME280;10604;51.976;7.594;2023-02-22T05:07:04;100636.91;;;7.67;100.00
20889;BME280;10604;51.976;7.594;2023-02-22T05:09:29;100640.53;;;7.60;100.00
20889;BME280;10604;51.976;7.594;2023-02-22T05:11:55;100633.59;;;7.56;100.00
20889;BME280;10604;51.976;7.594;2023-02-22T05:14:20;100638.94;;;7.53;100.00
20889;BME280;10604;51.976;7.594;2023-02-22T05:16:47;100632.81;;;7.52;100.00
20889;BME280;10604;51.976;7.594;2023-02-22T05:19:14;100635.50;;;7.47;100.00
20889;BME280;10604;51.976;7.594;2023-02-22T05:21:39;100635.47;;;7.51;100.00
20889;BME280;10604;51.976;7.594;2023-02-22T05:24:05;100630.22;;;7.51;100.00
20889;BME280;10604;51.976;7.594;2023-02-22T05:26:31;100636.94;;;7.64;100.00
20889;BME280;10604;51.976;7.594;2023-02-22T05:28:56;100633.59;;;7.56;100.00
20889;BME280;10604;51.976;7.594;2023-02-22T05:31:21;100630.25;;;7.47;100.00
20889;BME280;10604;51.976;7.594;2023-02-22T05:33:47;100640.00;;;7.41;100.00
20889;BME280;10604;51.976;7.594;2023-02-22T05:36:12;100632.13;;;7.42;100.00
20889;BME280;10604;51.976;7.594;2023-02-22T05:38:38;100632.00;;;7.48;100.00
20889;BME280;10604;51.976;7.594;2023-02-22T05:41:10;100628.44;;;7.53;100.00
20889;BME280;10604;51.976;7.594;2023-02-22T05:43:36;100625.91;;;7.46;100.00
20889;BME280;10604;51.976;7.594;2023-02-22T05:46:01;100621.25;;;7.61;100.00
20889;BME280;10604;51.976;7.594;2023-02-22T05:48:27;100622.13;;;7.61;100.00
20889;BME280;10604;51.976;7.594;2023-02-22T05:50:52;100636.09;;;7.62;100.00
20889;BME280;10604;51.976;7.594;2023-02-22T05:53:17;100624.88;;;7.54;100.00
20889;BME280;10604;51.976;7.594;2023-02-22T05:55:43;100632.13;;;7.42;100.00
20889;BME280;10604;51.976;7.594;2023-02-22T05:58:08;100625.97;;;7.43;100.00
20889;BME280;10604;51.976;7.594;2023-02-22T06:00:33;100625.69;;;7.59;100.00
20889;BME280;10604;51.976;7.594;2023-02-22T06:03:02;100626.81;;;7.45;100.00
20889;BME280;10604;51.976;7.594;2023-02-22T06:05:28;100621.63;;;7.42;100.00
20889;BME280;10604;51.976;7.594;2023-02-22T06:07:54;100625.13;;;7.41;100.00
20889;BME280;10604;51.976;7.594;2023-02-22T06:10:20;100624.22;;;7.44;100.00
20889;BME280;10604;51.976;7.594;2023-02-22T06:12:47;100620.09;;;7.31;100.00
20889;BME280;10604;51.976;7.594;2023-02-22T06:15:14;100622.69;;;7.32;100.00
20889;BME280;10604;51.976;7.594;2023-02-22T06:17:40;100624.59;;;7.24;100.00
20889;BME280;10604;51.976;7.594;2023-02-22T06:20:08;100618.34;;;7.31;100.00
20889;BME280;10604;51.976;7.594;2023-02-22T06:22:33;100618.63;;;7.16;100.00
20889;BME280;10604;51.976;7.594;2023-02-22T06:25:01;100622.03;;;7.21;100.00
20889;BME280;10604;51.976;7.594;2023-02-22T06:27:30;100621.91;;;7.27;100.00
20889;BME280;10604;51.976;7.594;2023-02-22T06:29:55;100608.13;;;7.16;100.00
20889;BME280;10604;51.976;7.594;2023-02-22T06:32:21;100611.50;;;7.24;100.00
20889;BME280;10604;51.976;7.594;2023-02-22T06:34:46;100619.38;;;7.23;100.00
20889;BME280;10604;51.976;7.594;2023-02-22T06:37:12;100611.28;;;7.33;100.00
20889;BME280;10604;51.976;7.594;2023-02-22T06:39:38;100613.09;;;7.31;100.00
20889;BME280;10604;51.976;7.594;2023-02-22T06:42:03;100616.41;;;7.39;100.00
20889;BME280;10604;51.976;7.594;2023-02-22T06:44:29;100621.91;;;7.27;100.00
20889;BME280;10604;51.976;7.594;2023-02-22T06:46:54;100627.03;;;7.33;100.00
20889;BME280;10604;51.976;7.594;2023-02-22T06:49:20;100629.88;;;7.23;100.00
20889;BME280;10604;51.976;7.594;2023-02-22T06:51:46;100630.66;;;7.26;100.00
20889;BME280;10604;51.976;7.594;2023-02-22T06:54:12;100623.75;;;7.22;100.00
20889;BME280;10604;51.976;7.594;2023-02-22T06:56:37;100627.25;;;7.21;100.00
20889;BME280;10604;51.976;7.594;2023-02-22T06:59:03;100623.81;;;7.19;100.00
20889;BME280;10604;51.976;7.594;2023-02-22T07:01:29;100615.00;;;7.23;100.00
20889;BME280;10604;51.976;7.594;2023-02-22T07:03:55;100631.00;;;7.08;100.00
20889;BME280;10604;51.976;7.594;2023-02-22T07:06:20;100625.44;;;7.25;100.00
20889;BME280;10604;51.976;7.594;2023-02-22T07:08:47;100627.22;;;7.24;100.00
20889;BME280;10604;51.976;7.594;2023-02-22T07:11:12;100629.13;;;7.16;100.00
20889;BME280;10604;51.976;7.594;2023-02-22T07:13:38;100622.19;;;7.12;100.00
20889;BME280;10604;51.976;7.594;2023-02-22T07:16:04;100617.13;;;7.03;100.00
20889;BME280;10604;51.976;7.594;2023-02-22T07:18:29;100619.53;;;7.14;100.00
20889;BME280;10604;51.976;7.594;2023-02-22T07:20:54;100617.03;;;7.06;100.00
20889;BME280;10604;51.976;7.594;2023-02-22T07:23:20;100622.25;;;7.09;100.00
20889;BME280;10604;51.976;7.594;2023-02-22T07:25:45;100616.94;;;7.12;100.00
20889;BME280;10604;51.976;7.594;2023-02-22T07:28:11;100623.13;;;7.08;100.00
20889;BME280;10604;51.976;7.594;2023-02-22T07:30:37;100620.53;;;7.08;100.00
20889;BME280;10604;51.976;7.594;2023-02-22T07:33:05;100625.50;;;7.22;100.00
20889;BME280;10604;51.976;7.594;2023-02-22T07:35:33;100615.53;;;7.40;100.00
20889;BME280;10604;51.976;7.594;2023-02-22T07:38:03;100623.63;;;7.28;100.00
20889;BME280;10604;51.976;7.594;2023-02-22T07:40:30;100619.13;;;7.35;100.00
20889;BME280;10604;51.976;7.594;2023-02-22T07:45:27;100621.50;;;7.48;100.00
20889;BME280;10604;51.976;7.594;2023-02-22T07:47:54;100619.50;;;7.61;100.00
20889;BME280;10604;51.976;7.594;2023-02-22T07:50:21;100623.81;;;7.65;100.00
20889;BME280;10604;51.976;7.594;2023-02-22T07:52:49;100626.31;;;7.70;100.00
20889;BME280;10604;51.976;7.594;2023-02-22T07:55:17;100625.53;;;7.66;100.00
20889;BME280;10604;51.976;7.594;2023-02-22T07:57:47;100624.09;;;7.50;100.00
20889;BME280;10604;51.976;7.594;2023-02-22T08:00:16;100618.78;;;7.53;100.00
20889;BME280;10604;51.976;7.594;2023-02-22T08:02:45;100621.91;;;7.72;100.00
20889;BME280;10604;51.976;7.594;2023-02-22T08:05:10;100618.44;;;7.70;100.00
20889;BME280;10604;51.976;7.594;2023-02-22T08:07:37;100615.78;;;7.73;100.00
20889;BME280;10604;51.976;7.594;2023-02-22T08:10:04;100615.78;;;7.73;100.00
20889;BME280;10604;51.976;7.594;2023-02-22T08:12:32;100616.44;;;7.82;100.00
20889;BME280;10604;51.976;7.594;2023-02-22T08:14:57;100608.34;;;7.93;100.00
20889;BME280;10604;51.976;7.594;2023-02-22T08:17:23;100611.59;;;8.04;100.00
20889;BME280;10604;51.976;7.594;2023-02-22T08:19:48;100606.75;;;7.86;100.00
20889;BME280;10604;51.976;7.594;2023-02-22T08:22:14;100603.72;;;7.63;100.00
20889;BME280;10604;51.976;7.594;2023-02-22T08:24:39;100606.66;;;7.89;100.00
20889;BME280;10604;51.976;7.594;2023-02-22T08:27:05;100600.38;;;7.96;100.00
20889;BME280;10604;51.976;7.594;2023-02-22T08:29:30;100597.50;;;8.08;100.00
20889;BME280;10604;51.976;7.594;2023-02-22T08:31:58;100600.03;;;8.13;100.00
20889;BME280;10604;51.976;7.594;2023-02-22T08:34:24;100595.91;;;8.41;100.00
20889;BME280;10604;51.976;7.594;2023-02-22T08:36:49;100597.81;;;8.33;100.00
20889;BME280;10604;51.976;7.594;2023-02-22T08:39:15;100590.31;;;8.16;100.00
20889;BME280;10604;51.976;7.594;2023-02-22T08:41:40;100594.00;;;8.09;100.00
20889;BME280;10604;51.976;7.594;2023-02-22T08:44:06;100600.28;;;8.41;100.00
20889;BME280;10604;51.976;7.594;2023-02-22T08:46:31;100597.50;;;8.47;100.00
20889;BME280;10604;51.976;7.594;2023-02-22T08:48:56;100582.56;;;8.49;100.00
20889;BME280;10604;51.976;7.594;2023-02-22T08:51:22;100586.38;;;8.73;100.00
20889;BME280;10604;51.976;7.594;2023-02-22T08:53:47;100582.09;;;8.67;100.00
20889;BME280;10604;51.976;7.594;2023-02-22T08:56:13;100581.97;;;8.73;100.00
20889;BME280;10604;51.976;7.594;2023-02-22T08:58:38;100577.28;;;8.86;100.00
20889;BME280;10604;51.976;7.594;2023-02-22T09:01:04;100575.31;;;8.94;100.00
20889;BME280;10604;51.976;7.594;2023-02-22T09:03:29;100579.13;;;9.15;100.00
20889;BME280;10604;51.976;7.594;2023-02-22T09:05:54;100571.81;;;9.26;100.00
20889;BME280;10604;51.976;7.594;2023-02-22T09:08:20;100566.53;;;9.26;100.00
20889;BME280;10604;51.976;7.594;2023-02-22T09:10:46;100565.66;;;9.25;100.00
20889;BME280;10604;51.976;7.594;2023-02-22T09:13:12;100569.47;;;9.46;100.00
20889;BME280;10604;51.976;7.594;2023-02-22T09:15:38;100566.72;;;9.51;100.00
20889;BME280;10604;51.976;7.594;2023-02-22T09:18:05;100569.81;;;9.34;100.00
20889;BME280;10604;51.976;7.594;2023-02-22T09:20:33;100569.56;;;9.43;99.87
20889;BME280;10604;51.976;7.594;2023-02-22T09:23:00;100566.78;;;9.49;100.00
20889;BME280;10604;51.976;7.594;2023-02-22T09:25:27;100562.34;;;9.51;100.00
20889;BME280;10604;51.976;7.594;2023-02-22T09:27:54;100558.94;;;9.46;100.00
20889;BME280;10604;51.976;7.594;2023-02-22T09:30:24;100566.81;;;9.48;100.00
20889;BME280;10604;51.976;7.594;2023-02-22T09:32:51;100556.38;;;9.74;100.00
20889;BME280;10604;51.976;7.594;2023-02-22T09:35:17;100559.59;;;9.83;98.98
20889;BME280;10604;51.976;7.594;2023-02-22T09:37:43;100549.16;;;9.80;99.59
20889;BME280;10604;51.976;7.594;2023-02-22T09:40:14;100557.16;;;10.07;99.49
20889;BME280;10604;51.976;7.594;2023-02-22T09:42:47;100558.88;;;10.08;98.26
20889;BME280;10604;51.976;7.594;2023-02-22T09:45:31;100554.06;;;10.22;98.22
20889;BME280;10604;51.976;7.594;2023-02-22T09:48:02;100553.81;;;10.30;95.72
20889;BME280;10604;51.976;7.594;2023-02-22T09:50:42;100554.09;;;10.20;95.60
20889;BME280;10604;51.976;7.594;2023-02-22T09:55:49;100554.78;;;10.27;96.69
20889;BME280;10604;51.976;7.594;2023-02-22T09:58:23;100540.69;;;10.28;96.61
20889;BME280;10604;51.976;7.594;2023-02-22T10:00:54;100539.16;;;10.47;94.60
20889;BME280;10604;51.976;7.594;2023-02-22T10:03:33;100531.44;;;10.68;94.41
20889;BME280;10604;51.976;7.594;2023-02-22T10:06:04;100535.91;;;10.92;93.00
20889;BME280;10604;51.976;7.594;2023-02-22T10:08:34;100534.47;;;11.08;91.65
20889;BME280;10604;51.976;7.594;2023-02-22T10:11:05;100535.50;;;11.27;92.14
20889;BME280;10604;51.976;7.594;2023-02-22T10:16:25;100535.75;;;11.68;90.33
20889;BME280;10604;51.976;7.594;2023-02-22T10:24:50;100532.53;;;12.06;88.73
20889;BME280;10604;51.976;7.594;2023-02-22T10:27:24;100524.97;;;12.19;87.81
20889;BME280;10604;51.976;7.594;2023-02-22T10:29:58;100523.91;;;12.45;87.09
20889;BME280;10604;51.976;7.594;2023-02-22T10:32:47;100522.47;;;12.58;86.63
20889;BME280;10604;51.976;7.594;2023-02-22T10:35:21;100517.84;;;12.63;85.21
20889;BME280;10604;51.976;7.594;2023-02-22T10:37:50;100519.69;;;12.61;85.86
20889;BME280;10604;51.976;7.594;2023-02-22T10:40:22;100515.06;;;12.86;85.24
20889;BME280;10604;51.976;7.594;2023-02-22T10:43:06;100511.63;;;13.05;85.32
20889;BME280;10604;51.976;7.594;2023-02-22T10:45:33;100504.38;;;12.89;84.46
20889;BME280;10604;51.976;7.594;2023-02-22T10:48:09;100515.22;;;13.24;84.16
20889;BME280;10604;51.976;7.594;2023-02-22T10:50:38;100503.66;;;13.45;82.44
20889;BME280;10604;51.976;7.594;2023-02-22T10:53:05;100505.59;;;13.98;79.80
20889;BME280;10604;51.976;7.594;2023-02-22T10:55:31;100501.34;;;13.94;80.61
20889;BME280;10604;51.976;7.594;2023-02-22T10:58:04;100498.81;;;13.92;80.10
20889;BME280;10604;51.976;7.594;2023-02-22T11:00:32;100500.63;;;14.09;78.76
20889;BME280;10604;51.976;7.594;2023-02-22T11:05:38;100498.84;;;14.09;78.97
20889;BME280;10604;51.976;7.594;2023-02-22T11:08:21;100493.34;;;14.31;78.09
20889;BME280;10604;51.976;7.594;2023-02-22T11:10:54;100490.13;;;14.61;76.20
20889;BME280;10604;51.976;7.594;2023-02-22T11:13:27;100487.78;;;14.55;75.43
20889;BME280;10604;51.976;7.594;2023-02-22T11:15:54;100494.81;;;14.90;75.09
20889;BME280;10604;51.976;7.594;2023-02-22T11:18:32;100488.72;;;14.71;75.36
20889;BME280;10604;51.976;7.594;2023-02-22T11:21:09;100489.50;;;14.90;75.24
20889;BME280;10604;51.976;7.594;2023-02-22T11:23:38;100483.41;;;14.71;75.36
20889;BME280;10604;51.976;7.594;2023-02-22T11:26:09;100493.09;;;14.89;75.25
20889;BME280;10604;51.976;7.594;2023-02-22T11:28:41;100489.03;;;14.82;75.31
20889;BME280;10604;51.976;7.594;2023-02-22T11:31:20;100476.97;;;14.92;75.11
20889;BME280;10604;51.976;7.594;2023-02-22T11:33:53;100476.16;;;14.92;71.21
20889;BME280;10604;51.976;7.594;2023-02-22T11:38:58;100471.56;;;15.44;69.85
20889;BME280;10604;51.976;7.594;2023-02-22T11:41:29;100469.81;;;15.60;67.86
20889;BME280;10604;51.976;7.594;2023-02-22T11:44:25;100458.75;;;15.35;69.48
20889;BME280;10604;51.976;7.594;2023-02-22T11:46:52;100460.50;;;15.51;68.72
20889;BME280;10604;51.976;7.594;2023-02-22T11:49:32;100459.53;;;15.37;68.42
20889;BME280;10604;51.976;7.594;2023-02-22T11:52:26;100453.47;;;15.50;66.38
20889;BME280;10604;51.976;7.594;2023-02-22T11:57:54;100440.66;;;15.25;69.62
20889;BME280;10604;51.976;7.594;2023-02-22T12:00:52;100440.66;;;15.25;69.92
20889;BME280;10604;51.976;7.594;2023-02-22T12:09:07;100429.97;;;15.27;69.81
20889;BME280;10604;51.976;7.594;2023-02-22T12:17:06;100420.88;;;15.31;67.59
20889;BME280;10604;51.976;7.594;2023-02-22T12:19:41;100422.63;;;15.48;67.88
20889;BME280;10604;51.976;7.594;2023-02-22T12:22:18;100426.03;;;15.50;69.14
20889;BME280;10604;51.976;7.594;2023-02-22T12:24:48;100420.66;;;15.67;69.02
20889;BME280;10604;51.976;7.594;2023-02-22T12:27:25;100419.22;;;15.77;67.38
20889;BME280;10604;51.976;7.594;2023-02-22T12:30:02;100414.47;;;16.28;64.16
20889;BME280;10604;51.976;7.594;2023-02-22T12:32:42;100414.88;;;16.06;63.80
20889;BME280;10604;51.976;7.594;2023-02-22T12:35:15;100402.41;;;16.06;65.90
20889;BME280;10604;51.976;7.594;2023-02-22T12:40:45;100405.94;;;16.07;66.48
20889;BME280;10604;51.976;7.594;2023-02-22T12:43:19;100400.31;;;15.97;67.79
20889;BME280;10604;51.976;7.594;2023-02-22T12:46:09;100402.84;;;16.15;65.55
20889;BME280;10604;51.976;7.594;2023-02-22T12:48:53;100396.81;;;16.27;67.26
20889;BME280;10604;51.976;7.594;2023-02-22T12:51:38;100398.63;;;16.26;66.19
20889;BME280;10604;51.976;7.594;2023-02-22T12:54:36;100390.25;;;16.32;66.73
20889;BME280;10604;51.976;7.594;2023-02-22T12:57:15;100390.84;;;16.67;65.46
20889;BME280;10604;51.976;7.594;2023-02-22T12:59:51;100392.38;;;16.56;65.79
20889;BME280;10604;51.976;7.594;2023-02-22T13:02:31;100394.56;;;16.05;67.95
20889;BME280;10604;51.976;7.594;2023-02-22T13:05:00;100389.81;;;16.10;67.80
20889;BME280;10604;51.976;7.594;2023-02-22T13:21:10;100384.47;;;16.40;66.84
20889;BME280;10604;51.976;7.594;2023-02-22T13:23:56;100382.97;;;16.50;66.56
20889;BME280;10604;51.976;7.594;2023-02-22T13:26:48;100382.59;;;16.56;64.54
20889;BME280;10604;51.976;7.594;2023-02-22T13:29:26;100381.06;;;16.52;63.34
20889;BME280;10604;51.976;7.594;2023-02-22T13:52:02;100369.06;;;16.45;64.84
20889;BME280;10604;51.976;7.594;2023-02-22T13:54:43;100367.00;;;16.50;64.83
20889;BME280;10604;51.976;7.594;2023-02-22T13:57:40;100376.41;;;16.56;64.53
20889;BME280;10604;51.976;7.594;2023-02-22T14:13:30;100360.38;;;16.27;63.44
20889;BME280;10604;51.976;7.594;2023-02-22T14:18:37;100356.28;;;16.22;64.80
20889;BME280;10604;51.976;7.594;2023-02-22T14:21:07;100361.34;;;15.96;65.34
20889;BME280;10604;51.976;7.594;2023-02-22T14:23:38;100355.88;;;16.14;63.79
20889;BME280;10604;51.976;7.594;2023-02-22T14:26:31;100361.50;;;15.93;65.55
20889;BME280;10604;51.976;7.594;2023-02-22T14:29:15;100353.84;;;15.73;66.29
20889;BME280;10604;51.976;7.594;2023-02-22T14:34:20;100350.06;;;15.77;66.68
20889;BME280;10604;51.976;7.594;2023-02-22T14:36:58;100358.09;;;15.91;65.23
20889;BME280;10604;51.976;7.594;2023-02-22T14:42:15;100355.81;;;15.99;65.49
20889;BME280;10604;51.976;7.594;2023-02-22T14:47:29;100360.34;;;15.83;65.46
20889;BME280;10604;51.976;7.594;2023-02-22T14:50:04;100358.44;;;15.85;67.12
20889;BME280;10604;51.976;7.594;2023-02-22T14:52:34;100351.94;;;15.91;64.74
20889;BME280;10604;51.976;7.594;2023-02-22T14:55:17;100357.63;;;16.29;61.99
20889;BME280;10604;51.976;7.594;2023-02-22T14:58:18;100348.63;;;16.01;63.43
20889;BME280;10604;51.976;7.594;2023-02-22T15:00:49;100345.28;;;15.68;67.05
20889;BME280;10604;51.976;7.594;2023-02-22T15:03:33;100348.84;;;15.51;69.83
20889;BME280;10604;51.976;7.594;2023-02-22T15:06:06;100345.25;;;15.37;68.25
20889;BME280;10604;51.976;7.594;2023-02-22T15:08:39;100342.53;;;15.54;67.46
20889;BME280;10604;51.976;7.594;2023-02-22T15:11:18;100345.97;;;15.56;66.75
20889;BME280;10604;51.976;7.594;2023-02-22T15:13:49;100343.72;;;15.48;68.59
20889;BME280;10604;51.976;7.594;2023-02-22T15:16:14;100338.41;;;15.33;69.93
20889;BME280;10604;51.976;7.594;2023-02-22T15:18:45;100340.78;;;15.21;71.02
20889;BME280;10604;51.976;7.594;2023-02-22T15:21:23;100337.19;;;15.22;70.93
20889;BME280;10604;51.976;7.594;2023-02-22T15:23:53;100333.75;;;15.20;71.04
20889;BME280;10604;51.976;7.594;2023-02-22T15:26:34;100334.81;;;15.34;67.76